sensor_id;sensor_type;location;lat;lon;timestamp;temperature;humidity
3348;DHT22;1687;49.540;8.574;2022-08-26T00:00:26;24.20;51.80
3348;DHT22;1687;49.540;8.574;2022-08-26T00:02:52;24.20;51.80
3348;DHT22;1687;49.540;8.574;2022-08-26T00:05:18;24.20;51.80
3348;DHT22;1687;49.540;8.574;2022-08-26T00:07:44;24.20;51.80
3348;DHT22;1687;49.540;8.574;2022-08-26T00:10:10;24.30;51.90
3348;DHT22;1687;49.540;8.574;2022-08-26T00:12:37;24.30;51.90
3348;DHT22;1687;49.540;8.574;2022-08-26T00:15:05;24.20;51.80
3348;DHT22;1687;49.540;8.574;2022-08-26T00:17:32;24.20;51.80
3348;DHT22;1687;49.540;8.574;2022-08-26T00:19:58;24.10;51.90
3348;DHT22;1687;49.540;8.574;2022-08-26T00:22:23;24.00;52.00
3348;DHT22;1687;49.540;8.574;2022-08-26T00:24:49;24.00;52.20
3348;DHT22;1687;49.540;8.574;2022-08-26T00:27:15;24.10;52.30
3348;DHT22;1687;49.540;8.574;2022-08-26T00:29:41;24.10;52.20
3348;DHT22;1687;49.540;8.574;2022-08-26T00:32:06;24.10;52.30
3348;DHT22;1687;49.540;8.574;2022-08-26T00:34:33;24.10;52.30
3348;DHT22;1687;49.540;8.574;2022-08-26T00:36:59;24.10;52.40
3348;DHT22;1687;49.540;8.574;2022-08-26T00:39:25;24.00;52.40
3348;DHT22;1687;49.540;8.574;2022-08-26T00:41:50;24.10;52.50
3348;DHT22;1687;49.540;8.574;2022-08-26T00:44:16;24.00;52.50
3348;DHT22;1687;49.540;8.574;2022-08-26T00:46:51;24.00;52.50
3348;DHT22;1687;49.540;8.574;2022-08-26T00:49:27;24.00;52.60
3348;DHT22;1687;49.540;8.574;2022-08-26T00:52:03;24.00;52.70
3348;DHT22;1687;49.540;8.574;2022-08-26T00:54:34;24.00;52.70
3348;DHT22;1687;49.540;8.574;2022-08-26T00:57:08;24.00;52.70
3348;DHT22;1687;49.540;8.574;2022-08-26T00:59:37;23.90;52.70
3348;DHT22;1687;49.540;8.574;2022-08-26T01:02:03;23.90;52.80
3348;DHT22;1687;49.540;8.574;2022-08-26T01:04:29;23.90;52.80
3348;DHT22;1687;49.540;8.574;2022-08-26T01:06:56;23.90;52.90
3348;DHT22;1687;49.540;8.574;2022-08-26T01:09:22;23.90;53.00
3348;DHT22;1687;49.540;8.574;2022-08-26T01:11:51;23.90;53.10
3348;DHT22;1687;49.540;8.574;2022-08-26T01:14:19;23.80;53.00
3348;DHT22;1687;49.540;8.574;2022-08-26T01:16:47;23.80;53.10
3348;DHT22;1687;49.540;8.574;2022-08-26T01:19:43;23.80;53.10
3348;DHT22;1687;49.540;8.574;2022-08-26T01:22:29;23.70;53.20
3348;DHT22;1687;49.540;8.574;2022-08-26T01:25:16;23.70;53.80
3348;DHT22;1687;49.540;8.574;2022-08-26T01:27:43;23.70;53.30
3348;DHT22;1687;49.540;8.574;2022-08-26T01:30:09;23.60;53.30
3348;DHT22;1687;49.540;8.574;2022-08-26T01:32:36;23.60;53.50
3348;DHT22;1687;49.540;8.574;2022-08-26T01:35:03;23.60;53.60
3348;DHT22;1687;49.540;8.574;2022-08-26T01:37:35;23.60;53.60
3348;DHT22;1687;49.540;8.574;2022-08-26T01:40:04;23.60;53.60
3348;DHT22;1687;49.540;8.574;2022-08-26T01:42:31;23.60;53.70
3348;DHT22;1687;49.540;8.574;2022-08-26T01:45:05;23.40;53.50
3348;DHT22;1687;49.540;8.574;2022-08-26T01:47:35;23.30;53.80
3348;DHT22;1687;49.540;8.574;2022-08-26T01:50:06;23.10;54.00
3348;DHT22;1687;49.540;8.574;2022-08-26T01:52:37;23.10;54.10
3348;DHT22;1687;49.540;8.574;2022-08-26T01:55:05;23.00;54.20
3348;DHT22;1687;49.540;8.574;2022-08-26T01:57:31;23.00;54.30
3348;DHT22;1687;49.540;8.574;2022-08-26T02:00:01;23.00;54.40
3348;DHT22;1687;49.540;8.574;2022-08-26T02:02:29;23.00;54.40
3348;DHT22;1687;49.540;8.574;2022-08-26T02:05:01;22.90;54.40
3348;DHT22;1687;49.540;8.574;2022-08-26T02:07:31;22.80;54.40
3348;DHT22;1687;49.540;8.574;2022-08-26T02:09:57;22.70;54.50
3348;DHT22;1687;49.540;8.574;2022-08-26T02:12:24;22.50;54.40
3348;DHT22;1687;49.540;8.574;2022-08-26T02:14:53;22.30;54.70
3348;DHT22;1687;49.540;8.574;2022-08-26T02:17:25;22.10;54.90
3348;DHT22;1687;49.540;8.574;2022-08-26T02:19:55;22.10;55.40
3348;DHT22;1687;49.540;8.574;2022-08-26T02:22:22;22.10;55.50
3348;DHT22;1687;49.540;8.574;2022-08-26T02:24:54;22.20;55.70
3348;DHT22;1687;49.540;8.574;2022-08-26T02:27:32;22.20;55.70
3348;DHT22;1687;49.540;8.574;2022-08-26T02:30:12;22.20;55.50
3348;DHT22;1687;49.540;8.574;2022-08-26T02:32:41;22.30;55.80
3348;DHT22;1687;49.540;8.574;2022-08-26T02:35:10;22.30;55.80
3348;DHT22;1687;49.540;8.574;2022-08-26T02:37:37;22.40;55.80
3348;DHT22;1687;49.540;8.574;2022-08-26T02:40:04;22.40;55.80
3348;DHT22;1687;49.540;8.574;2022-08-26T02:42:31;22.40;55.80
3348;DHT22;1687;49.540;8.574;2022-08-26T02:44:58;22.40;55.90
3348;DHT22;1687;49.540;8.574;2022-08-26T02:47:24;22.50;55.90
3348;DHT22;1687;49.540;8.574;2022-08-26T02:49:51;22.50;55.80
3348;DHT22;1687;49.540;8.574;2022-08-26T02:52:16;22.60;56.00
3348;DHT22;1687;49.540;8.574;2022-08-26T02:54:42;22.60;56.00
3348;DHT22;1687;49.540;8.574;2022-08-26T02:57:09;22.60;56.50
3348;DHT22;1687;49.540;8.574;2022-08-26T02:59:36;22.60;55.90
3348;DHT22;1687;49.540;8.574;2022-08-26T03:02:04;22.50;55.90
3348;DHT22;1687;49.540;8.574;2022-08-26T03:04:30;22.50;56.00
3348;DHT22;1687;49.540;8.574;2022-08-26T03:06:57;22.40;55.90
3348;DHT22;1687;49.540;8.574;2022-08-26T03:09:23;22.30;56.00
3348;DHT22;1687;49.540;8.574;2022-08-26T03:11:49;22.30;56.20
3348;DHT22;1687;49.540;8.574;2022-08-26T03:14:16;22.30;56.20
3348;DHT22;1687;49.540;8.574;2022-08-26T03:16:41;22.10;56.00
3348;DHT22;1687;49.540;8.574;2022-08-26T03:19:08;22.00;56.20
3348;DHT22;1687;49.540;8.574;2022-08-26T03:21:36;21.90;56.40
3348;DHT22;1687;49.540;8.574;2022-08-26T03:24:02;21.80;56.60
3348;DHT22;1687;49.540;8.574;2022-08-26T03:26:28;21.70;56.70
3348;DHT22;1687;49.540;8.574;2022-08-26T03:28:54;21.60;56.70
3348;DHT22;1687;49.540;8.574;2022-08-26T03:31:38;21.60;57.00
3348;DHT22;1687;49.540;8.574;2022-08-26T03:34:04;21.70;57.20
3348;DHT22;1687;49.540;8.574;2022-08-26T03:36:30;21.80;57.20
3348;DHT22;1687;49.540;8.574;2022-08-26T03:38:56;21.80;57.20
3348;DHT22;1687;49.540;8.574;2022-08-26T03:41:22;21.80;57.20
3348;DHT22;1687;49.540;8.574;2022-08-26T03:43:48;21.70;57.20
3348;DHT22;1687;49.540;8.574;2022-08-26T03:46:15;21.80;57.40
3348;DHT22;1687;49.540;8.574;2022-08-26T03:48:42;21.80;57.40
3348;DHT22;1687;49.540;8.574;2022-08-26T03:51:16;21.70;57.30
3348;DHT22;1687;49.540;8.574;2022-08-26T03:53:44;21.60;57.30
3348;DHT22;1687;49.540;8.574;2022-08-26T03:56:10;21.60;57.30
3348;DHT22;1687;49.540;8.574;2022-08-26T03:58:36;21.50;57.60
3348;DHT22;1687;49.540;8.574;2022-08-26T04:01:03;21.50;57.60
3348;DHT22;1687;49.540;8.574;2022-08-26T04:03:29;21.50;57.80
3348;DHT22;1687;49.540;8.574;2022-08-26T04:06:13;21.60;58.00
3348;DHT22;1687;49.540;8.574;2022-08-26T04:08:39;21.50;57.80
3348;DHT22;1687;49.540;8.574;2022-08-26T04:11:05;21.50;58.00
3348;DHT22;1687;49.540;8.574;2022-08-26T04:13:31;21.50;58.20
3348;DHT22;1687;49.540;8.574;2022-08-26T04:15:57;21.60;58.20
3348;DHT22;1687;49.540;8.574;2022-08-26T04:18:24;21.70;58.30
3348;DHT22;1687;49.540;8.574;2022-08-26T04:20:52;21.80;58.30
3348;DHT22;1687;49.540;8.574;2022-08-26T04:23:18;21.80;58.30
3348;DHT22;1687;49.540;8.574;2022-08-26T04:25:43;21.90;58.30
3348;DHT22;1687;49.540;8.574;2022-08-26T04:28:09;21.90;58.30
3348;DHT22;1687;49.540;8.574;2022-08-26T04:30:38;22.00;58.40
3348;DHT22;1687;49.540;8.574;2022-08-26T04:33:05;22.00;58.40
3348;DHT22;1687;49.540;8.574;2022-08-26T04:35:32;22.10;58.40
3348;DHT22;1687;49.540;8.574;2022-08-26T04:37:59;22.10;58.40
3348;DHT22;1687;49.540;8.574;2022-08-26T04:40:25;22.10;58.40
3348;DHT22;1687;49.540;8.574;2022-08-26T04:42:52;22.10;58.40
3348;DHT22;1687;49.540;8.574;2022-08-26T04:45:18;22.20;58.60
3348;DHT22;1687;49.540;8.574;2022-08-26T04:47:44;22.20;58.50
3348;DHT22;1687;49.540;8.574;2022-08-26T04:50:11;22.20;58.50
3348;DHT22;1687;49.540;8.574;2022-08-26T04:52:37;22.20;58.60
3348;DHT22;1687;49.540;8.574;2022-08-26T04:55:03;22.20;58.50
3348;DHT22;1687;49.540;8.574;2022-08-26T04:57:29;22.20;58.40
3348;DHT22;1687;49.540;8.574;2022-08-26T04:59:56;22.10;58.40
3348;DHT22;1687;49.540;8.574;2022-08-26T05:02:22;22.10;58.60
3348;DHT22;1687;49.540;8.574;2022-08-26T05:04:47;22.00;58.60
3348;DHT22;1687;49.540;8.574;2022-08-26T05:07:13;22.00;58.60
3348;DHT22;1687;49.540;8.574;2022-08-26T05:09:39;22.10;58.90
3348;DHT22;1687;49.540;8.574;2022-08-26T05:12:05;22.10;58.90
3348;DHT22;1687;49.540;8.574;2022-08-26T05:14:31;22.10;58.80
3348;DHT22;1687;49.540;8.574;2022-08-26T05:16:57;22.30;59.00
3348;DHT22;1687;49.540;8.574;2022-08-26T05:19:23;22.30;59.00
3348;DHT22;1687;49.540;8.574;2022-08-26T05:21:49;22.40;58.90
3348;DHT22;1687;49.540;8.574;2022-08-26T05:24:16;22.50;58.90
3348;DHT22;1687;49.540;8.574;2022-08-26T05:26:42;22.50;58.90
3348;DHT22;1687;49.540;8.574;2022-08-26T05:29:08;22.50;58.90
3348;DHT22;1687;49.540;8.574;2022-08-26T05:31:34;22.40;58.90
3348;DHT22;1687;49.540;8.574;2022-08-26T05:34:01;22.50;59.00
3348;DHT22;1687;49.540;8.574;2022-08-26T05:36:30;22.50;59.00
3348;DHT22;1687;49.540;8.574;2022-08-26T05:38:58;22.50;58.80
3348;DHT22;1687;49.540;8.574;2022-08-26T05:41:29;22.40;58.90
3348;DHT22;1687;49.540;8.574;2022-08-26T05:43:59;22.40;58.90
3348;DHT22;1687;49.540;8.574;2022-08-26T05:46:27;22.30;58.80
3348;DHT22;1687;49.540;8.574;2022-08-26T05:48:54;22.30;59.10
3348;DHT22;1687;49.540;8.574;2022-08-26T05:51:21;22.20;59.10
3348;DHT22;1687;49.540;8.574;2022-08-26T05:53:48;22.20;59.20
3348;DHT22;1687;49.540;8.574;2022-08-26T05:56:14;22.10;59.20
3348;DHT22;1687;49.540;8.574;2022-08-26T05:58:41;22.20;59.40
3348;DHT22;1687;49.540;8.574;2022-08-26T06:01:11;22.20;59.20
3348;DHT22;1687;49.540;8.574;2022-08-26T06:03:41;22.10;59.20
3348;DHT22;1687;49.540;8.574;2022-08-26T06:06:15;22.10;59.30
3348;DHT22;1687;49.540;8.574;2022-08-26T06:08:43;22.00;59.10
3348;DHT22;1687;49.540;8.574;2022-08-26T06:11:11;21.90;59.20
3348;DHT22;1687;49.540;8.574;2022-08-26T06:13:39;21.90;59.50
3348;DHT22;1687;49.540;8.574;2022-08-26T06:16:08;22.00;59.50
3348;DHT22;1687;49.540;8.574;2022-08-26T06:18:38;22.00;59.60
3348;DHT22;1687;49.540;8.574;2022-08-26T06:23:41;21.90;59.60
3348;DHT22;1687;49.540;8.574;2022-08-26T06:26:27;21.90;59.70
3348;DHT22;1687;49.540;8.574;2022-08-26T06:28:53;21.90;59.70
3348;DHT22;1687;49.540;8.574;2022-08-26T06:31:20;21.90;59.70
3348;DHT22;1687;49.540;8.574;2022-08-26T06:33:48;21.80;59.70
3348;DHT22;1687;49.540;8.574;2022-08-26T06:36:20;21.70;59.90
3348;DHT22;1687;49.540;8.574;2022-08-26T06:38:48;21.70;60.00
3348;DHT22;1687;49.540;8.574;2022-08-26T06:41:16;21.80;60.20
3348;DHT22;1687;49.540;8.574;2022-08-26T06:43:43;22.00;60.40
3348;DHT22;1687;49.540;8.574;2022-08-26T06:46:11;22.30;60.70
3348;DHT22;1687;49.540;8.574;2022-08-26T06:48:38;22.60;60.70
3348;DHT22;1687;49.540;8.574;2022-08-26T06:51:52;22.80;60.30
3348;DHT22;1687;49.540;8.574;2022-08-26T06:54:00;22.90;60.30
3348;DHT22;1687;49.540;8.574;2022-08-26T06:56:31;23.10;60.40
3348;DHT22;1687;49.540;8.574;2022-08-26T06:59:01;23.20;60.20
3348;DHT22;1687;49.540;8.574;2022-08-26T07:01:32;23.40;60.20
3348;DHT22;1687;49.540;8.574;2022-08-26T07:04:02;23.40;59.80
3348;DHT22;1687;49.540;8.574;2022-08-26T07:06:30;23.20;59.70
3348;DHT22;1687;49.540;8.574;2022-08-26T07:09:00;23.10;59.70
3348;DHT22;1687;49.540;8.574;2022-08-26T07:11:30;23.20;60.00
3348;DHT22;1687;49.540;8.574;2022-08-26T07:13:57;23.40;60.00
3348;DHT22;1687;49.540;8.574;2022-08-26T07:16:24;23.60;60.00
3348;DHT22;1687;49.540;8.574;2022-08-26T07:18:51;23.70;59.90
3348;DHT22;1687;49.540;8.574;2022-08-26T07:21:18;23.90;59.80
3348;DHT22;1687;49.540;8.574;2022-08-26T07:23:45;23.90;59.60
3348;DHT22;1687;49.540;8.574;2022-08-26T07:26:14;23.90;59.60
3348;DHT22;1687;49.540;8.574;2022-08-26T07:28:42;23.90;59.50
3348;DHT22;1687;49.540;8.574;2022-08-26T07:31:12;23.90;59.50
3348;DHT22;1687;49.540;8.574;2022-08-26T07:33:40;23.90;59.50
3348;DHT22;1687;49.540;8.574;2022-08-26T07:36:07;24.00;59.60
3348;DHT22;1687;49.540;8.574;2022-08-26T07:38:35;24.10;59.60
3348;DHT22;1687;49.540;8.574;2022-08-26T07:41:01;24.20;59.60
3348;DHT22;1687;49.540;8.574;2022-08-26T07:43:27;24.30;59.60
3348;DHT22;1687;49.540;8.574;2022-08-26T07:45:54;24.50;59.60
3348;DHT22;1687;49.540;8.574;2022-08-26T07:48:20;24.60;59.80
3348;DHT22;1687;49.540;8.574;2022-08-26T07:50:46;24.80;59.50
3348;DHT22;1687;49.540;8.574;2022-08-26T07:53:13;24.80;59.30
3348;DHT22;1687;49.540;8.574;2022-08-26T07:55:38;25.00;59.30
3348;DHT22;1687;49.540;8.574;2022-08-26T07:58:05;25.00;59.80
3348;DHT22;1687;49.540;8.574;2022-08-26T08:00:32;25.00;59.10
3348;DHT22;1687;49.540;8.574;2022-08-26T08:02:59;24.90;58.90
3348;DHT22;1687;49.540;8.574;2022-08-26T08:05:26;24.90;58.80
3348;DHT22;1687;49.540;8.574;2022-08-26T08:07:51;24.80;58.80
3348;DHT22;1687;49.540;8.574;2022-08-26T08:10:20;24.80;58.70
3348;DHT22;1687;49.540;8.574;2022-08-26T08:12:48;24.80;58.70
3348;DHT22;1687;49.540;8.574;2022-08-26T08:15:16;24.90;58.80
3348;DHT22;1687;49.540;8.574;2022-08-26T08:17:44;25.00;58.70
3348;DHT22;1687;49.540;8.574;2022-08-26T08:20:11;25.00;58.50
3348;DHT22;1687;49.540;8.574;2022-08-26T08:22:37;25.10;58.60
3348;DHT22;1687;49.540;8.574;2022-08-26T08:25:04;25.30;58.60
3348;DHT22;1687;49.540;8.574;2022-08-26T08:27:35;25.40;58.50
3348;DHT22;1687;49.540;8.574;2022-08-26T08:30:03;25.60;58.40
3348;DHT22;1687;49.540;8.574;2022-08-26T08:32:30;25.70;58.10
3348;DHT22;1687;49.540;8.574;2022-08-26T08:34:56;25.70;58.10
3348;DHT22;1687;49.540;8.574;2022-08-26T08:37:22;25.80;57.90
3348;DHT22;1687;49.540;8.574;2022-08-26T08:39:48;25.70;58.30
3348;DHT22;1687;49.540;8.574;2022-08-26T08:42:37;25.80;57.80
3348;DHT22;1687;49.540;8.574;2022-08-26T08:45:33;25.90;57.90
3348;DHT22;1687;49.540;8.574;2022-08-26T08:48:25;26.00;57.60
3348;DHT22;1687;49.540;8.574;2022-08-26T08:53:34;26.10;57.40
3348;DHT22;1687;49.540;8.574;2022-08-26T08:56:10;26.20;57.40
3348;DHT22;1687;49.540;8.574;2022-08-26T09:07:36;26.50;57.10
3348;DHT22;1687;49.540;8.574;2022-08-26T09:12:56;26.60;56.60
3348;DHT22;1687;49.540;8.574;2022-08-26T09:15:30;26.60;56.60
3348;DHT22;1687;49.540;8.574;2022-08-26T09:18:04;26.60;56.60
3348;DHT22;1687;49.540;8.574;2022-08-26T09:20:45;26.70;56.60
3348;DHT22;1687;49.540;8.574;2022-08-26T09:23:14;26.70;56.40
3348;DHT22;1687;49.540;8.574;2022-08-26T09:26:14;26.80;56.30
3348;DHT22;1687;49.540;8.574;2022-08-26T09:28:58;26.90;56.00
3348;DHT22;1687;49.540;8.574;2022-08-26T09:31:45;26.80;56.10
3348;DHT22;1687;49.540;8.574;2022-08-26T09:34:25;27.00;56.20
3348;DHT22;1687;49.540;8.574;2022-08-26T09:36:53;27.10;56.00
3348;DHT22;1687;49.540;8.574;2022-08-26T09:44:58;27.30;55.70
3348;DHT22;1687;49.540;8.574;2022-08-26T09:47:31;27.50;55.60
3348;DHT22;1687;49.540;8.574;2022-08-26T09:50:17;27.50;55.40
3348;DHT22;1687;49.540;8.574;2022-08-26T09:55:49;27.60;55.20
3348;DHT22;1687;49.540;8.574;2022-08-26T09:58:37;27.70;55.30
3348;DHT22;1687;49.540;8.574;2022-08-26T10:01:07;27.90;55.30
3348;DHT22;1687;49.540;8.574;2022-08-26T10:03:39;28.00;55.60
3348;DHT22;1687;49.540;8.574;2022-08-26T10:08:44;28.30;54.70
3348;DHT22;1687;49.540;8.574;2022-08-26T10:11:37;28.30;54.50
3348;DHT22;1687;49.540;8.574;2022-08-26T10:14:22;28.30;54.40
3348;DHT22;1687;49.540;8.574;2022-08-26T10:16:56;28.50;54.50
3348;DHT22;1687;49.540;8.574;2022-08-26T10:19:46;28.60;54.20
3348;DHT22;1687;49.540;8.574;2022-08-26T10:22:26;28.70;54.30
3348;DHT22;1687;49.540;8.574;2022-08-26T10:25:03;29.10;54.40
3348;DHT22;1687;49.540;8.574;2022-08-26T10:27:39;29.50;54.10
3348;DHT22;1687;49.540;8.574;2022-08-26T10:30:59;29.90;53.90
3348;DHT22;1687;49.540;8.574;2022-08-26T10:33:28;30.30;53.50
3348;DHT22;1687;49.540;8.574;2022-08-26T10:36:02;30.50;53.10
3348;DHT22;1687;49.540;8.574;2022-08-26T10:38:34;30.70;52.90
3348;DHT22;1687;49.540;8.574;2022-08-26T10:41:08;30.90;52.70
3348;DHT22;1687;49.540;8.574;2022-08-26T10:43:43;31.10;52.50
3348;DHT22;1687;49.540;8.574;2022-08-26T10:46:16;31.30;52.20
3348;DHT22;1687;49.540;8.574;2022-08-26T10:48:58;31.40;51.90
3348;DHT22;1687;49.540;8.574;2022-08-26T10:51:30;31.50;51.80
3348;DHT22;1687;49.540;8.574;2022-08-26T10:54:10;31.50;51.50
3348;DHT22;1687;49.540;8.574;2022-08-26T10:57:04;31.70;51.40
3348;DHT22;1687;49.540;8.574;2022-08-26T10:59:44;31.90;51.10
3348;DHT22;1687;49.540;8.574;2022-08-26T11:02:38;32.20;51.00
3348;DHT22;1687;49.540;8.574;2022-08-26T11:05:21;32.50;50.70
3348;DHT22;1687;49.540;8.574;2022-08-26T11:07:49;32.70;50.50
3348;DHT22;1687;49.540;8.574;2022-08-26T11:17:53;32.90;49.40
3348;DHT22;1687;49.540;8.574;2022-08-26T11:22:49;32.80;49.10
3348;DHT22;1687;49.540;8.574;2022-08-26T11:25:20;32.90;49.00
3348;DHT22;1687;49.540;8.574;2022-08-26T11:27:56;32.80;48.80
3348;DHT22;1687;49.540;8.574;2022-08-26T11:32:53;32.80;48.30
3348;DHT22;1687;49.540;8.574;2022-08-26T11:37:55;32.90;48.40
3348;DHT22;1687;49.540;8.574;2022-08-26T11:40:28;32.90;48.20
3348;DHT22;1687;49.540;8.574;2022-08-26T11:43:00;33.00;48.00
3348;DHT22;1687;49.540;8.574;2022-08-26T11:48:27;33.20;47.90
3348;DHT22;1687;49.540;8.574;2022-08-26T11:51:07;33.40;47.70
3348;DHT22;1687;49.540;8.574;2022-08-26T11:53:37;33.30;47.30
3348;DHT22;1687;49.540;8.574;2022-08-26T11:56:10;33.20;47.30
3348;DHT22;1687;49.540;8.574;2022-08-26T11:58:44;33.10;47.20
3348;DHT22;1687;49.540;8.574;2022-08-26T12:01:12;33.20;47.30
3348;DHT22;1687;49.540;8.574;2022-08-26T12:03:50;33.20;47.10
3348;DHT22;1687;49.540;8.574;2022-08-26T12:06:21;33.20;46.90
3348;DHT22;1687;49.540;8.574;2022-08-26T12:08:54;33.20;46.60
3348;DHT22;1687;49.540;8.574;2022-08-26T12:11:25;33.10;46.60
3348;DHT22;1687;49.540;8.574;2022-08-26T12:16:34;33.00;46.60
3348;DHT22;1687;49.540;8.574;2022-08-26T12:19:20;33.00;46.50
3348;DHT22;1687;49.540;8.574;2022-08-26T12:22:05;32.80;46.50
3348;DHT22;1687;49.540;8.574;2022-08-26T12:24:51;32.70;46.50
3348;DHT22;1687;49.540;8.574;2022-08-26T12:27:26;32.60;46.60
3348;DHT22;1687;49.540;8.574;2022-08-26T12:32:28;32.60;46.80
3348;DHT22;1687;49.540;8.574;2022-08-26T12:34:56;32.60;46.70
3348;DHT22;1687;49.540;8.574;2022-08-26T12:37:23;32.50;46.60
3348;DHT22;1687;49.540;8.574;2022-08-26T12:39:51;32.40;46.70
3348;DHT22;1687;49.540;8.574;2022-08-26T12:47:38;32.60;47.00
3348;DHT22;1687;49.540;8.574;2022-08-26T12:50:19;32.70;47.00
3348;DHT22;1687;49.540;8.574;2022-08-26T12:53:03;32.80;46.80
3348;DHT22;1687;49.540;8.574;2022-08-26T12:55:43;33.00;46.80
3348;DHT22;1687;49.540;8.574;2022-08-26T13:08:45;33.10;46.10
3348;DHT22;1687;49.540;8.574;2022-08-26T13:14:00;33.00;45.90
3348;DHT22;1687;49.540;8.574;2022-08-26T13:16:30;33.10;46.00
3348;DHT22;1687;49.540;8.574;2022-08-26T13:18:59;33.10;45.80
3348;DHT22;1687;49.540;8.574;2022-08-26T13:21:29;33.20;45.90
3348;DHT22;1687;49.540;8.574;2022-08-26T13:23:58;33.30;45.80
3348;DHT22;1687;49.540;8.574;2022-08-26T13:26:27;33.40;45.80
3348;DHT22;1687;49.540;8.574;2022-08-26T13:28:53;33.60;46.30
3348;DHT22;1687;49.540;8.574;2022-08-26T13:31:19;33.80;45.60
3348;DHT22;1687;49.540;8.574;2022-08-26T13:33:44;34.00;45.50
3348;DHT22;1687;49.540;8.574;2022-08-26T13:36:11;34.30;45.30
3348;DHT22;1687;49.540;8.574;2022-08-26T13:38:37;34.80;45.20
3348;DHT22;1687;49.540;8.574;2022-08-26T13:41:03;35.10;44.90
3348;DHT22;1687;49.540;8.574;2022-08-26T13:43:30;35.20;44.30
3348;DHT22;1687;49.540;8.574;2022-08-26T13:45:56;35.10;43.90
3348;DHT22;1687;49.540;8.574;2022-08-26T13:48:22;35.00;43.70
3348;DHT22;1687;49.540;8.574;2022-08-26T13:50:48;35.10;43.90
3348;DHT22;1687;49.540;8.574;2022-08-26T13:53:15;35.20;43.50
3348;DHT22;1687;49.540;8.574;2022-08-26T13:55:41;35.10;43.20
3348;DHT22;1687;49.540;8.574;2022-08-26T13:58:08;34.90;43.10
3348;DHT22;1687;49.540;8.574;2022-08-26T14:00:35;35.00;43.20
3348;DHT22;1687;49.540;8.574;2022-08-26T14:03:02;35.20;43.20
3348;DHT22;1687;49.540;8.574;2022-08-26T14:05:29;35.20;42.80
3348;DHT22;1687;49.540;8.574;2022-08-26T14:07:55;35.20;42.60
3348;DHT22;1687;49.540;8.574;2022-08-26T14:10:24;35.10;42.40
3348;DHT22;1687;49.540;8.574;2022-08-26T14:12:52;34.90;42.30
3348;DHT22;1687;49.540;8.574;2022-08-26T14:15:18;34.70;42.30
3348;DHT22;1687;49.540;8.574;2022-08-26T14:17:46;34.70;42.40
3348;DHT22;1687;49.540;8.574;2022-08-26T14:20:15;34.70;42.40
3348;DHT22;1687;49.540;8.574;2022-08-26T14:22:48;34.60;42.50
3348;DHT22;1687;49.540;8.574;2022-08-26T14:25:14;35.30;42.80
3348;DHT22;1687;49.540;8.574;2022-08-26T14:27:40;36.50;42.60
3348;DHT22;1687;49.540;8.574;2022-08-26T14:30:07;37.60;42.10
3348;DHT22;1687;49.540;8.574;2022-08-26T14:32:33;38.00;41.20
3348;DHT22;1687;49.540;8.574;2022-08-26T14:35:00;37.80;40.40
3348;DHT22;1687;49.540;8.574;2022-08-26T14:37:26;37.20;40.20
3348;DHT22;1687;49.540;8.574;2022-08-26T14:39:52;37.40;40.30
3348;DHT22;1687;49.540;8.574;2022-08-26T14:42:24;37.90;40.20
3348;DHT22;1687;49.540;8.574;2022-08-26T14:44:55;38.50;40.00
3348;DHT22;1687;49.540;8.574;2022-08-26T14:47:21;38.90;39.40
3348;DHT22;1687;49.540;8.574;2022-08-26T14:49:47;39.10;39.20
3348;DHT22;1687;49.540;8.574;2022-08-26T14:52:13;38.90;38.70
3348;DHT22;1687;49.540;8.574;2022-08-26T14:54:39;38.40;38.40
3348;DHT22;1687;49.540;8.574;2022-08-26T14:57:10;38.10;38.40
3348;DHT22;1687;49.540;8.574;2022-08-26T14:59:43;38.30;39.10
3348;DHT22;1687;49.540;8.574;2022-08-26T15:02:12;38.40;38.10
3348;DHT22;1687;49.540;8.574;2022-08-26T15:04:39;37.70;37.90
3348;DHT22;1687;49.540;8.574;2022-08-26T15:07:06;37.00;38.00
3348;DHT22;1687;49.540;8.574;2022-08-26T15:09:34;36.10;38.20
3348;DHT22;1687;49.540;8.574;2022-08-26T15:12:02;35.70;38.80
3348;DHT22;1687;49.540;8.574;2022-08-26T15:14:28;35.80;39.30
3348;DHT22;1687;49.540;8.574;2022-08-26T15:16:55;36.10;39.40
3348;DHT22;1687;49.540;8.574;2022-08-26T15:19:23;36.50;39.30
3348;DHT22;1687;49.540;8.574;2022-08-26T15:21:50;37.00;39.20
3348;DHT22;1687;49.540;8.574;2022-08-26T15:24:19;37.40;38.90
3348;DHT22;1687;49.540;8.574;2022-08-26T15:26:46;38.00;39.00
3348;DHT22;1687;49.540;8.574;2022-08-26T15:29:13;38.60;38.50
3348;DHT22;1687;49.540;8.574;2022-08-26T15:31:39;39.10;38.10
3348;DHT22;1687;49.540;8.574;2022-08-26T15:34:07;39.20;37.60
3348;DHT22;1687;49.540;8.574;2022-08-26T15:36:35;38.90;37.70
3348;DHT22;1687;49.540;8.574;2022-08-26T15:39:04;38.80;37.50
3348;DHT22;1687;49.540;8.574;2022-08-26T15:41:31;38.10;37.20
3348;DHT22;1687;49.540;8.574;2022-08-26T15:43:58;37.70;37.70
3348;DHT22;1687;49.540;8.574;2022-08-26T15:46:24;37.40;37.70
3348;DHT22;1687;49.540;8.574;2022-08-26T15:48:50;36.70;37.80
3348;DHT22;1687;49.540;8.574;2022-08-26T15:51:42;36.20;38.20
3348;DHT22;1687;49.540;8.574;2022-08-26T15:54:09;35.70;38.70
3348;DHT22;1687;49.540;8.574;2022-08-26T15:56:36;35.30;38.90
3348;DHT22;1687;49.540;8.574;2022-08-26T15:59:04;35.40;39.70
3348;DHT22;1687;49.540;8.574;2022-08-26T16:01:31;35.80;39.90
3348;DHT22;1687;49.540;8.574;2022-08-26T16:03:57;36.10;40.00
3348;DHT22;1687;49.540;8.574;2022-08-26T16:06:26;36.70;40.10
3348;DHT22;1687;49.540;8.574;2022-08-26T16:08:54;37.00;39.70
3348;DHT22;1687;49.540;8.574;2022-08-26T16:11:20;37.30;39.80
3348;DHT22;1687;49.540;8.574;2022-08-26T16:13:47;37.20;39.70
3348;DHT22;1687;49.540;8.574;2022-08-26T16:16:13;36.70;39.60
3348;DHT22;1687;49.540;8.574;2022-08-26T16:18:40;36.30;39.60
3348;DHT22;1687;49.540;8.574;2022-08-26T16:21:06;35.90;39.70
3348;DHT22;1687;49.540;8.574;2022-08-26T16:23:33;35.50;40.10
3348;DHT22;1687;49.540;8.574;2022-08-26T16:26:07;35.10;40.60
3348;DHT22;1687;49.540;8.574;2022-08-26T16:28:33;34.70;40.80
3348;DHT22;1687;49.540;8.574;2022-08-26T16:30:59;34.30;41.10
3348;DHT22;1687;49.540;8.574;2022-08-26T16:33:24;33.80;41.50
3348;DHT22;1687;49.540;8.574;2022-08-26T16:35:51;33.10;41.90
3348;DHT22;1687;49.540;8.574;2022-08-26T16:38:18;32.50;42.60
3348;DHT22;1687;49.540;8.574;2022-08-26T16:40:44;32.10;43.20
3348;DHT22;1687;49.540;8.574;2022-08-26T16:43:09;31.70;43.60
3348;DHT22;1687;49.540;8.574;2022-08-26T16:45:35;31.40;44.20
3348;DHT22;1687;49.540;8.574;2022-08-26T16:48:03;31.30;44.70
3348;DHT22;1687;49.540;8.574;2022-08-26T16:50:30;31.00;44.80
3348;DHT22;1687;49.540;8.574;2022-08-26T16:52:57;30.80;45.20
3348;DHT22;1687;49.540;8.574;2022-08-26T16:55:23;30.50;45.40
3348;DHT22;1687;49.540;8.574;2022-08-26T16:57:49;30.30;45.80
3348;DHT22;1687;49.540;8.574;2022-08-26T17:00:27;30.00;46.10
3348;DHT22;1687;49.540;8.574;2022-08-26T17:02:54;29.70;46.30
3348;DHT22;1687;49.540;8.574;2022-08-26T17:05:21;29.50;46.70
3348;DHT22;1687;49.540;8.574;2022-08-26T17:07:50;29.30;47.10
3348;DHT22;1687;49.540;8.574;2022-08-26T17:10:16;29.20;47.60
3348;DHT22;1687;49.540;8.574;2022-08-26T17:12:42;29.10;47.70
3348;DHT22;1687;49.540;8.574;2022-08-26T17:15:08;28.90;48.00
3348;DHT22;1687;49.540;8.574;2022-08-26T17:17:35;28.80;48.30
3348;DHT22;1687;49.540;8.574;2022-08-26T17:20:02;28.70;49.00
3348;DHT22;1687;49.540;8.574;2022-08-26T17:22:37;28.60;48.70
3348;DHT22;1687;49.540;8.574;2022-08-26T17:25:08;28.60;49.10
3348;DHT22;1687;49.540;8.574;2022-08-26T17:27:35;28.50;49.10